createdAt,value
2023-03-29T00:01:12.970Z,5.22
2023-03-29T00:06:36.178Z,5.24
2023-03-29T00:11:39.439Z,5.23
2023-03-29T00:16:44.640Z,5.37
2023-03-29T00:21:47.386Z,5.30
2023-03-29T00:26:49.984Z,5.47
2023-03-29T00:31:54.338Z,5.45
2023-03-29T00:36:58.142Z,5.41
2023-03-29T00:42:00.808Z,5.41
2023-03-29T00:47:03.613Z,5.42
2023-03-29T00:52:07.420Z,5.38
2023-03-29T00:57:11.845Z,5.37
2023-03-29T01:02:22.281Z,5.27
2023-03-29T01:07:48.192Z,5.25
2023-03-29T01:12:56.464Z,5.24
2023-03-29T01:18:02.024Z,5.22
2023-03-29T01:23:17.579Z,5.23
2023-03-29T01:28:33.538Z,5.20
2023-03-29T01:33:45.405Z,5.21
2023-03-29T01:38:52.963Z,5.17
2023-03-29T01:44:04.753Z,5.17
2023-03-29T01:49:28.716Z,5.13
2023-03-29T01:54:39.931Z,5.22
2023-03-29T01:59:46.045Z,5.19
2023-03-29T02:04:52.525Z,5.19
2023-03-29T02:09:55.732Z,5.18
2023-03-29T02:14:59.812Z,5.13
2023-03-29T02:20:20.677Z,5.08
2023-03-29T02:25:24.626Z,5.10
2023-03-29T02:30:34.888Z,5.15
2023-03-29T02:35:46.302Z,5.19
2023-03-29T02:40:49.244Z,5.20
2023-03-29T02:45:53.149Z,5.26
2023-03-29T02:51:01.567Z,5.23
2023-03-29T02:56:04.904Z,5.22
2023-03-29T03:01:09.766Z,5.25
2023-03-29T03:06:13.635Z,5.13
2023-03-29T03:11:17.105Z,5.25
2023-03-29T03:16:19.709Z,5.26
2023-03-29T03:21:23.246Z,5.28
2023-03-29T03:26:30.013Z,5.28
2023-03-29T03:31:33.721Z,5.29
2023-03-29T03:36:48.901Z,5.37
2023-03-29T03:41:51.493Z,5.45
2023-03-29T03:46:54.839Z,5.53
2023-03-29T03:51:57.433Z,5.59
2023-03-29T03:57:00.198Z,5.65
2023-03-29T04:02:11.432Z,5.75
2023-03-29T04:07:17.941Z,5.82
2023-03-29T04:12:46.956Z,5.86
2023-03-29T04:17:49.723Z,5.98
2023-03-29T04:23:06.953Z,6.08
2023-03-29T04:28:12.865Z,6.20
2023-03-29T04:33:29.485Z,6.40
2023-03-29T04:38:38.481Z,6.36
2023-03-29T04:43:41.725Z,6.31
2023-03-29T04:48:57.515Z,6.36
2023-03-29T04:54:10.909Z,6.38
2023-03-29T04:59:33.208Z,6.51
2023-03-29T05:04:38.622Z,6.69
2023-03-29T05:09:48.202Z,6.72
2023-03-29T05:14:51.299Z,6.74
2023-03-29T05:19:55.105Z,6.82
2023-03-29T05:25:00.710Z,6.64
2023-03-29T05:30:04.044Z,6.66
2023-03-29T05:35:29.439Z,6.62
2023-03-29T05:40:34.158Z,6.73
2023-03-29T05:45:55.754Z,6.95
2023-03-29T05:50:59.435Z,7.11
2023-03-29T05:56:02.446Z,7.21
2023-03-29T06:01:12.686Z,7.41
2023-03-29T06:06:36.290Z,7.36
2023-03-29T06:11:39.359Z,7.55
2023-03-29T06:16:45.180Z,7.61
2023-03-29T06:21:49.428Z,7.59
2023-03-29T06:26:58.175Z,7.67
2023-03-29T06:32:00.859Z,7.62
2023-03-29T06:37:32.719Z,7.45
2023-03-29T06:42:46.687Z,7.50
2023-03-29T06:48:08.197Z,7.48
2023-03-29T06:53:11.643Z,7.44
2023-03-29T06:58:15.763Z,7.42
2023-03-29T07:03:23.637Z,7.40
2023-03-29T07:08:35.288Z,7.23
2023-03-29T07:13:44.040Z,6.96
2023-03-29T07:18:51.400Z,7.01
2023-03-29T07:24:13.109Z,6.99
2023-03-29T07:29:16.993Z,7.18
2023-03-29T07:34:20.003Z,7.12
2023-03-29T07:39:22.858Z,7.08
2023-03-29T07:44:45.906Z,6.96
2023-03-29T07:49:49.001Z,6.87
2023-03-29T07:54:52.310Z,7.00
2023-03-29T08:00:16.689Z,7.11
2023-03-29T08:05:40.734Z,7.02
2023-03-29T08:10:50.474Z,6.85
2023-03-29T08:16:03.550Z,6.95
2023-03-29T08:21:11.861Z,7.06
2023-03-29T08:26:16.062Z,7.39
2023-03-29T08:31:19.433Z,7.64
2023-03-29T08:36:22.550Z,7.86
2023-03-29T08:41:58.421Z,7.83
2023-03-29T08:47:28.734Z,7.86
2023-03-29T08:52:38.118Z,7.67
2023-03-29T08:58:08.318Z,7.60
2023-03-29T09:03:24.417Z,7.47
2023-03-29T09:08:30.595Z,7.55
2023-03-29T09:13:39.352Z,7.86
2023-03-29T09:18:59.875Z,7.87
2023-03-29T09:24:10.251Z,7.78
2023-03-29T09:30:17.262Z,7.59
2023-03-29T09:35:38.988Z,7.47
2023-03-29T09:40:45.257Z,7.47
2023-03-29T09:46:00.827Z,7.45
2023-03-29T09:51:07.683Z,7.34
2023-03-29T09:56:15.944Z,7.56
2023-03-29T10:01:24.012Z,7.57
2023-03-29T10:06:27.069Z,7.45
2023-03-29T10:11:38.669Z,7.47
2023-03-29T10:16:46.217Z,7.53
2023-03-29T10:21:56.018Z,7.60
2023-03-29T10:27:02.379Z,7.36
2023-03-29T10:32:15.622Z,7.54
2023-03-29T10:37:19.958Z,7.37
2023-03-29T10:42:24.536Z,7.31
2023-03-29T10:47:34.454Z,7.21
2023-03-29T10:52:39.982Z,7.28
2023-03-29T10:58:13.573Z,7.32
2023-03-29T11:03:43.817Z,7.32
2023-03-29T11:09:02.286Z,7.36
2023-03-29T11:14:26.115Z,7.38
2023-03-29T11:19:47.435Z,7.37
2023-03-29T11:24:52.831Z,7.45
2023-03-29T11:29:58.742Z,7.44
2023-03-29T11:35:19.209Z,7.36
2023-03-29T11:40:36.269Z,7.31
2023-03-29T11:45:51.476Z,7.22
2023-03-29T11:51:06.800Z,7.36
2023-03-29T11:56:15.850Z,7.27
2023-03-29T12:01:33.529Z,7.42
2023-03-29T12:07:15.823Z,7.46
2023-03-29T12:12:30.425Z,7.54
2023-03-29T12:18:10.352Z,7.48
2023-03-29T12:23:15.500Z,7.28
2023-03-29T12:28:18.134Z,7.37
2023-03-29T12:33:21.682Z,7.33
2023-03-29T12:38:31.253Z,7.25
2023-03-29T12:43:52.852Z,7.09
2023-03-29T12:49:31.865Z,7.25
2023-03-29T12:54:34.465Z,7.31
2023-03-29T12:59:39.971Z,7.47
2023-03-29T13:04:57.586Z,7.57
2023-03-29T13:10:08.942Z,7.67
2023-03-29T13:15:14.466Z,7.65
2023-03-29T13:20:17.469Z,7.44
2023-03-29T13:25:50.981Z,7.29
2023-03-29T13:31:23.007Z,7.15
2023-03-29T13:36:43.985Z,7.12
2023-03-29T13:41:51.834Z,7.09
2023-03-29T13:47:05.000Z,7.11
2023-03-29T13:52:21.449Z,7.05
2023-03-29T13:57:32.334Z,6.85
2023-03-29T14:02:48.096Z,6.94
2023-03-29T14:07:54.368Z,6.87
2023-03-29T14:12:57.725Z,6.84
2023-03-29T14:18:01.531Z,6.83
2023-03-29T14:23:13.836Z,6.85
2023-03-29T14:28:26.435Z,6.80
2023-03-29T14:33:33.551Z,6.84
2023-03-29T14:38:37.410Z,6.88
2023-03-29T14:43:40.934Z,6.92
2023-03-29T14:48:44.087Z,6.89
2023-03-29T14:53:48.714Z,6.91
2023-03-29T14:58:55.568Z,6.84
2023-03-29T15:04:11.107Z,6.92
2023-03-29T15:09:27.898Z,6.95
2023-03-29T15:14:34.040Z,6.99
2023-03-29T15:19:37.006Z,7.00
2023-03-29T15:24:47.790Z,6.95
2023-03-29T15:30:01.417Z,6.93
2023-03-29T15:35:09.476Z,7.02
2023-03-29T15:40:21.507Z,7.06
2023-03-29T15:45:23.947Z,7.04
2023-03-29T15:50:26.730Z,6.91
2023-03-29T15:55:32.154Z,7.02
2023-03-29T16:00:36.040Z,7.06
2023-03-29T16:05:38.726Z,7.05
2023-03-29T16:10:43.924Z,6.98
2023-03-29T16:15:47.065Z,7.07
2023-03-29T16:20:49.820Z,7.09
2023-03-29T16:25:52.442Z,6.90
2023-03-29T16:30:55.084Z,6.99
2023-03-29T16:35:57.783Z,7.06
2023-03-29T16:41:00.908Z,7.12
2023-03-29T16:46:04.090Z,7.12
2023-03-29T16:51:07.436Z,7.11
2023-03-29T16:56:10.975Z,7.17
2023-03-29T17:01:19.405Z,7.15
2023-03-29T17:06:22.157Z,7.17
2023-03-29T17:11:26.285Z,7.09
2023-03-29T17:16:29.357Z,7.18
2023-03-29T17:21:32.223Z,7.15
2023-03-29T17:26:34.818Z,7.14
2023-03-29T17:31:41.106Z,7.17
2023-03-29T17:36:45.816Z,7.10
2023-03-29T17:41:48.512Z,7.17
2023-03-29T17:46:51.508Z,7.17
2023-03-29T17:51:54.114Z,7.16
2023-03-29T17:56:56.830Z,7.27
2023-03-29T18:02:02.660Z,7.29
2023-03-29T18:07:05.327Z,7.30
2023-03-29T18:12:09.203Z,7.24
2023-03-29T18:17:11.873Z,7.22
2023-03-29T18:22:14.801Z,7.15
2023-03-29T18:27:17.860Z,7.13
2023-03-29T18:32:21.612Z,7.21
2023-03-29T18:37:24.360Z,7.20
2023-03-29T18:42:27.459Z,7.15
2023-03-29T18:47:30.234Z,7.19
2023-03-29T18:52:33.375Z,7.30
2023-03-29T18:57:36.179Z,7.20
2023-03-29T19:02:40.476Z,7.13
2023-03-29T19:07:43.258Z,6.96
2023-03-29T19:12:45.975Z,7.16
2023-03-29T19:17:48.680Z,7.25
2023-03-29T19:22:52.220Z,7.10
2023-03-29T19:27:55.111Z,7.09
2023-03-29T19:32:57.947Z,7.09
2023-03-29T19:38:01.008Z,7.38
2023-03-29T19:43:04.545Z,7.32
2023-03-29T19:48:07.408Z,7.36
2023-03-29T19:53:11.181Z,7.25
2023-03-29T19:58:13.790Z,7.19
2023-03-29T20:03:17.441Z,7.35
2023-03-29T20:08:20.389Z,7.36
2023-03-29T20:13:35.363Z,7.43
2023-03-29T20:18:41.060Z,7.27
2023-03-29T20:23:44.265Z,7.39
2023-03-29T20:28:46.979Z,7.33
2023-03-29T20:33:49.850Z,7.31
2023-03-29T20:38:55.310Z,7.40
2023-03-29T20:43:58.636Z,7.39
2023-03-29T20:49:06.110Z,7.43
2023-03-29T20:54:10.043Z,7.35
2023-03-29T20:59:12.744Z,7.57
2023-03-29T21:04:15.512Z,7.58
2023-03-29T21:09:24.181Z,7.43
2023-03-29T21:14:26.910Z,7.48
2023-03-29T21:19:29.859Z,7.40
2023-03-29T21:24:33.229Z,7.40
2023-03-29T21:29:35.896Z,7.42
2023-03-29T21:34:38.581Z,7.40
2023-03-29T21:39:41.453Z,7.33
2023-03-29T21:44:44.502Z,7.29
2023-03-29T21:49:47.400Z,7.34
2023-03-29T21:54:50.067Z,7.36
2023-03-29T21:59:52.693Z,7.20
2023-03-29T22:04:55.763Z,7.15
2023-03-29T22:09:58.758Z,7.29
2023-03-29T22:15:01.942Z,7.30
2023-03-29T22:20:14.642Z,7.24
2023-03-29T22:25:18.742Z,7.20
2023-03-29T22:30:22.957Z,7.31
2023-03-29T22:35:25.783Z,7.28
2023-03-29T22:40:28.365Z,7.33
2023-03-29T22:45:30.961Z,7.29
2023-03-29T22:50:33.501Z,7.31
2023-03-29T22:55:36.831Z,7.27
2023-03-29T23:00:39.398Z,7.29
2023-03-29T23:05:42.023Z,7.32
2023-03-29T23:10:47.121Z,7.33
2023-03-29T23:15:50.663Z,7.33
2023-03-29T23:20:55.707Z,7.40
2023-03-29T23:25:58.345Z,7.37
2023-03-29T23:31:04.297Z,7.41
2023-03-29T23:36:15.561Z,7.34
2023-03-29T23:41:20.249Z,7.31
2023-03-29T23:46:22.893Z,7.28
2023-03-29T23:51:28.442Z,7.19
2023-03-29T23:56:31.368Z,7.12
